sensor_id;sensor_type;location;lat;lon;timestamp;P1;durP1;ratioP1;P2;durP2;ratioP2
3155;SDS011;1588;50.892;7.082;2023-03-01T00:03:56;6.13;;;3.60;;
3155;SDS011;1588;50.892;7.082;2023-03-01T00:09:14;8.83;;;3.70;;
3155;SDS011;1588;50.892;7.082;2023-03-01T00:14:18;17.97;;;4.13;;
3155;SDS011;1588;50.892;7.082;2023-03-01T00:19:21;11.77;;;4.40;;
3155;SDS011;1588;50.892;7.082;2023-03-01T00:24:27;9.93;;;3.50;;
3155;SDS011;1588;50.892;7.082;2023-03-01T00:29:42;9.67;;;3.90;;
3155;SDS011;1588;50.892;7.082;2023-03-01T00:34:55;9.00;;;4.20;;
3155;SDS011;1588;50.892;7.082;2023-03-01T00:40:03;7.63;;;3.73;;
3155;SDS011;1588;50.892;7.082;2023-03-01T00:45:12;11.37;;;4.50;;
3155;SDS011;1588;50.892;7.082;2023-03-01T00:50:20;17.63;;;3.90;;
3155;SDS011;1588;50.892;7.082;2023-03-01T00:55:33;9.00;;;3.87;;
3155;SDS011;1588;50.892;7.082;2023-03-01T01:00:41;10.67;;;3.73;;
3155;SDS011;1588;50.892;7.082;2023-03-01T01:05:54;12.80;;;3.83;;
3155;SDS011;1588;50.892;7.082;2023-03-01T01:10:59;11.27;;;4.10;;
3155;SDS011;1588;50.892;7.082;2023-03-01T01:16:02;8.83;;;3.80;;
3155;SDS011;1588;50.892;7.082;2023-03-01T01:21:06;8.00;;;4.30;;
3155;SDS011;1588;50.892;7.082;2023-03-01T01:26:15;7.23;;;3.30;;
3155;SDS011;1588;50.892;7.082;2023-03-01T01:31:19;5.87;;;3.53;;
3155;SDS011;1588;50.892;7.082;2023-03-01T01:36:24;7.33;;;3.80;;
3155;SDS011;1588;50.892;7.082;2023-03-01T01:41:28;9.50;;;3.53;;
3155;SDS011;1588;50.892;7.082;2023-03-01T01:46:31;14.10;;;3.13;;
3155;SDS011;1588;50.892;7.082;2023-03-01T01:51:37;8.87;;;4.03;;
3155;SDS011;1588;50.892;7.082;2023-03-01T01:56:46;7.10;;;3.50;;
3155;SDS011;1588;50.892;7.082;2023-03-01T02:01:52;7.50;;;3.67;;
3155;SDS011;1588;50.892;7.082;2023-03-01T02:06:55;6.77;;;3.83;;
3155;SDS011;1588;50.892;7.082;2023-03-01T02:12:04;10.23;;;4.20;;
3155;SDS011;1588;50.892;7.082;2023-03-01T02:17:08;8.07;;;4.27;;
3155;SDS011;1588;50.892;7.082;2023-03-01T02:22:13;6.47;;;3.97;;
3155;SDS011;1588;50.892;7.082;2023-03-01T02:27:25;11.60;;;3.80;;
3155;SDS011;1588;50.892;7.082;2023-03-01T02:32:37;8.10;;;3.60;;
3155;SDS011;1588;50.892;7.082;2023-03-01T02:37:42;12.33;;;4.60;;
3155;SDS011;1588;50.892;7.082;2023-03-01T02:42:47;5.17;;;2.90;;
3155;SDS011;1588;50.892;7.082;2023-03-01T02:47:54;6.33;;;3.47;;
3155;SDS011;1588;50.892;7.082;2023-03-01T02:53:00;7.03;;;3.70;;
3155;SDS011;1588;50.892;7.082;2023-03-01T02:58:03;11.70;;;4.50;;
3155;SDS011;1588;50.892;7.082;2023-03-01T03:03:08;7.97;;;4.23;;
3155;SDS011;1588;50.892;7.082;2023-03-01T03:08:14;21.90;;;5.00;;
3155;SDS011;1588;50.892;7.082;2023-03-01T03:13:24;8.20;;;4.10;;
3155;SDS011;1588;50.892;7.082;2023-03-01T03:18:30;12.83;;;4.10;;
3155;SDS011;1588;50.892;7.082;2023-03-01T03:23:32;9.53;;;4.40;;
3155;SDS011;1588;50.892;7.082;2023-03-01T03:28:36;11.10;;;4.07;;
3155;SDS011;1588;50.892;7.082;2023-03-01T03:33:41;10.37;;;4.00;;
3155;SDS011;1588;50.892;7.082;2023-03-01T03:38:44;11.47;;;3.90;;
3155;SDS011;1588;50.892;7.082;2023-03-01T03:43:46;9.07;;;3.80;;
3155;SDS011;1588;50.892;7.082;2023-03-01T03:48:50;10.10;;;3.97;;
3155;SDS011;1588;50.892;7.082;2023-03-01T03:53:52;18.23;;;4.23;;
3155;SDS011;1588;50.892;7.082;2023-03-01T03:58:55;15.30;;;4.60;;
3155;SDS011;1588;50.892;7.082;2023-03-01T04:03:58;8.70;;;4.17;;
3155;SDS011;1588;50.892;7.082;2023-03-01T04:09:07;9.87;;;4.57;;
3155;SDS011;1588;50.892;7.082;2023-03-01T04:14:09;7.97;;;4.50;;
3155;SDS011;1588;50.892;7.082;2023-03-01T04:19:12;14.37;;;4.70;;
3155;SDS011;1588;50.892;7.082;2023-03-01T04:24:23;11.80;;;5.60;;
3155;SDS011;1588;50.892;7.082;2023-03-01T04:29:25;15.20;;;4.50;;
3155;SDS011;1588;50.892;7.082;2023-03-01T04:34:29;10.80;;;4.47;;
3155;SDS011;1588;50.892;7.082;2023-03-01T04:39:31;11.17;;;4.57;;
3155;SDS011;1588;50.892;7.082;2023-03-01T04:44:34;10.90;;;5.17;;
3155;SDS011;1588;50.892;7.082;2023-03-01T04:49:37;10.70;;;5.07;;
3155;SDS011;1588;50.892;7.082;2023-03-01T04:54:39;14.17;;;4.53;;
3155;SDS011;1588;50.892;7.082;2023-03-01T04:59:43;9.60;;;4.40;;
3155;SDS011;1588;50.892;7.082;2023-03-01T05:04:47;13.60;;;5.07;;
3155;SDS011;1588;50.892;7.082;2023-03-01T05:09:49;12.87;;;4.53;;
3155;SDS011;1588;50.892;7.082;2023-03-01T05:14:51;13.87;;;4.77;;
3155;SDS011;1588;50.892;7.082;2023-03-01T05:19:55;13.50;;;5.30;;
3155;SDS011;1588;50.892;7.082;2023-03-01T05:25:00;12.33;;;4.77;;
3155;SDS011;1588;50.892;7.082;2023-03-01T05:30:02;14.77;;;4.90;;
3155;SDS011;1588;50.892;7.082;2023-03-01T05:35:16;11.93;;;4.97;;
3155;SDS011;1588;50.892;7.082;2023-03-01T05:40:22;9.63;;;5.40;;
3155;SDS011;1588;50.892;7.082;2023-03-01T05:45:26;12.00;;;4.30;;
3155;SDS011;1588;50.892;7.082;2023-03-01T05:50:32;15.67;;;4.83;;
3155;SDS011;1588;50.892;7.082;2023-03-01T05:55:36;15.60;;;6.37;;
3155;SDS011;1588;50.892;7.082;2023-03-01T06:00:39;19.27;;;6.63;;
3155;SDS011;1588;50.892;7.082;2023-03-01T06:05:43;10.00;;;5.20;;
3155;SDS011;1588;50.892;7.082;2023-03-01T06:10:46;13.00;;;5.00;;
3155;SDS011;1588;50.892;7.082;2023-03-01T06:15:49;13.33;;;4.17;;
3155;SDS011;1588;50.892;7.082;2023-03-01T06:20:55;13.20;;;5.27;;
3155;SDS011;1588;50.892;7.082;2023-03-01T06:25:57;26.23;;;6.30;;
3155;SDS011;1588;50.892;7.082;2023-03-01T06:31:10;13.50;;;5.20;;
3155;SDS011;1588;50.892;7.082;2023-03-01T06:36:14;21.37;;;5.37;;
3155;SDS011;1588;50.892;7.082;2023-03-01T06:41:19;13.20;;;4.63;;
3155;SDS011;1588;50.892;7.082;2023-03-01T06:46:21;14.03;;;5.73;;
3155;SDS011;1588;50.892;7.082;2023-03-01T06:51:25;15.30;;;4.50;;
3155;SDS011;1588;50.892;7.082;2023-03-01T06:56:27;16.20;;;5.60;;
3155;SDS011;1588;50.892;7.082;2023-03-01T07:01:30;14.63;;;5.43;;
3155;SDS011;1588;50.892;7.082;2023-03-01T07:06:34;14.17;;;5.90;;
3155;SDS011;1588;50.892;7.082;2023-03-01T07:11:36;11.60;;;4.63;;
3155;SDS011;1588;50.892;7.082;2023-03-01T07:16:39;10.70;;;5.80;;
3155;SDS011;1588;50.892;7.082;2023-03-01T07:21:42;8.27;;;4.30;;
3155;SDS011;1588;50.892;7.082;2023-03-01T07:26:47;11.03;;;5.73;;
3155;SDS011;1588;50.892;7.082;2023-03-01T07:31:50;32.13;;;8.97;;
3155;SDS011;1588;50.892;7.082;2023-03-01T07:36:53;27.10;;;9.37;;
3155;SDS011;1588;50.892;7.082;2023-03-01T07:41:55;20.67;;;7.70;;
3155;SDS011;1588;50.892;7.082;2023-03-01T07:46:58;21.03;;;7.03;;
3155;SDS011;1588;50.892;7.082;2023-03-01T07:52:01;19.03;;;7.80;;
3155;SDS011;1588;50.892;7.082;2023-03-01T07:57:04;36.53;;;10.67;;
3155;SDS011;1588;50.892;7.082;2023-03-01T08:02:08;44.70;;;13.67;;
3155;SDS011;1588;50.892;7.082;2023-03-01T08:07:12;21.00;;;10.00;;
3155;SDS011;1588;50.892;7.082;2023-03-01T08:12:15;16.13;;;7.73;;
3155;SDS011;1588;50.892;7.082;2023-03-01T08:17:17;27.50;;;9.40;;
3155;SDS011;1588;50.892;7.082;2023-03-01T08:22:21;21.03;;;9.63;;
3155;SDS011;1588;50.892;7.082;2023-03-01T08:27:23;23.30;;;9.87;;
3155;SDS011;1588;50.892;7.082;2023-03-01T08:32:25;17.80;;;9.37;;
3155;SDS011;1588;50.892;7.082;2023-03-01T08:37:29;23.90;;;9.90;;
3155;SDS011;1588;50.892;7.082;2023-03-01T08:42:33;20.23;;;9.00;;
3155;SDS011;1588;50.892;7.082;2023-03-01T08:47:35;18.03;;;9.90;;
3155;SDS011;1588;50.892;7.082;2023-03-01T08:52:39;18.13;;;8.50;;
3155;SDS011;1588;50.892;7.082;2023-03-01T08:57:42;16.87;;;9.57;;
3155;SDS011;1588;50.892;7.082;2023-03-01T09:02:44;17.93;;;9.40;;
3155;SDS011;1588;50.892;7.082;2023-03-01T09:07:47;16.13;;;9.17;;
3155;SDS011;1588;50.892;7.082;2023-03-01T09:12:54;18.17;;;8.67;;
3155;SDS011;1588;50.892;7.082;2023-03-01T09:17:56;18.63;;;9.23;;
3155;SDS011;1588;50.892;7.082;2023-03-01T09:23:01;15.70;;;8.77;;
3155;SDS011;1588;50.892;7.082;2023-03-01T09:28:03;16.37;;;8.90;;
3155;SDS011;1588;50.892;7.082;2023-03-01T09:33:05;18.20;;;9.03;;
3155;SDS011;1588;50.892;7.082;2023-03-01T09:38:10;19.30;;;9.27;;
3155;SDS011;1588;50.892;7.082;2023-03-01T09:43:18;16.73;;;8.83;;
3155;SDS011;1588;50.892;7.082;2023-03-01T09:48:25;17.23;;;8.50;;
3155;SDS011;1588;50.892;7.082;2023-03-01T09:53:32;15.33;;;8.50;;
3155;SDS011;1588;50.892;7.082;2023-03-01T09:58:41;17.13;;;7.50;;
3155;SDS011;1588;50.892;7.082;2023-03-01T10:03:57;16.03;;;9.07;;
3155;SDS011;1588;50.892;7.082;2023-03-01T10:09:22;14.73;;;7.87;;
3155;SDS011;1588;50.892;7.082;2023-03-01T10:14:30;14.47;;;8.10;;
3155;SDS011;1588;50.892;7.082;2023-03-01T10:19:40;17.27;;;8.40;;
3155;SDS011;1588;50.892;7.082;2023-03-01T10:24:45;15.30;;;8.80;;
3155;SDS011;1588;50.892;7.082;2023-03-01T10:29:49;18.57;;;7.73;;
3155;SDS011;1588;50.892;7.082;2023-03-01T10:34:58;17.73;;;8.00;;
3155;SDS011;1588;50.892;7.082;2023-03-01T10:40:03;21.10;;;9.90;;
3155;SDS011;1588;50.892;7.082;2023-03-01T10:45:15;21.30;;;8.20;;
3155;SDS011;1588;50.892;7.082;2023-03-01T10:50:36;14.87;;;7.60;;
3155;SDS011;1588;50.892;7.082;2023-03-01T10:55:42;13.73;;;7.07;;
3155;SDS011;1588;50.892;7.082;2023-03-01T11:00:46;21.03;;;9.27;;
3155;SDS011;1588;50.892;7.082;2023-03-01T11:05:52;18.50;;;8.57;;
3155;SDS011;1588;50.892;7.082;2023-03-01T11:11:05;20.67;;;8.30;;
3155;SDS011;1588;50.892;7.082;2023-03-01T11:16:14;16.80;;;8.10;;
3155;SDS011;1588;50.892;7.082;2023-03-01T11:21:24;17.87;;;7.97;;
3155;SDS011;1588;50.892;7.082;2023-03-01T11:26:30;20.13;;;8.67;;
3155;SDS011;1588;50.892;7.082;2023-03-01T11:31:36;22.53;;;8.23;;
3155;SDS011;1588;50.892;7.082;2023-03-01T11:36:40;16.87;;;7.33;;
3155;SDS011;1588;50.892;7.082;2023-03-01T11:41:48;17.47;;;7.43;;
3155;SDS011;1588;50.892;7.082;2023-03-01T11:47:04;15.50;;;7.73;;
3155;SDS011;1588;50.892;7.082;2023-03-01T11:52:34;16.23;;;6.93;;
3155;SDS011;1588;50.892;7.082;2023-03-01T11:57:55;13.93;;;6.90;;
3155;SDS011;1588;50.892;7.082;2023-03-01T12:03:21;15.70;;;7.00;;
3155;SDS011;1588;50.892;7.082;2023-03-01T12:08:32;18.83;;;6.77;;
3155;SDS011;1588;50.892;7.082;2023-03-01T12:13:50;15.57;;;7.20;;
3155;SDS011;1588;50.892;7.082;2023-03-01T12:19:22;15.30;;;7.00;;
3155;SDS011;1588;50.892;7.082;2023-03-01T12:24:43;11.00;;;6.20;;
3155;SDS011;1588;50.892;7.082;2023-03-01T12:30:01;10.90;;;5.40;;
3155;SDS011;1588;50.892;7.082;2023-03-01T12:35:24;17.43;;;6.43;;
3155;SDS011;1588;50.892;7.082;2023-03-01T12:40:42;9.20;;;5.93;;
3155;SDS011;1588;50.892;7.082;2023-03-01T12:46:00;12.43;;;6.63;;
3155;SDS011;1588;50.892;7.082;2023-03-01T12:51:11;15.40;;;6.17;;
3155;SDS011;1588;50.892;7.082;2023-03-01T12:56:17;10.30;;;5.70;;
3155;SDS011;1588;50.892;7.082;2023-03-01T13:01:25;14.13;;;6.80;;
3155;SDS011;1588;50.892;7.082;2023-03-01T13:06:38;16.40;;;6.30;;
3155;SDS011;1588;50.892;7.082;2023-03-01T13:11:45;15.17;;;6.40;;
3155;SDS011;1588;50.892;7.082;2023-03-01T13:16:48;12.03;;;6.23;;
3155;SDS011;1588;50.892;7.082;2023-03-01T13:21:52;15.10;;;7.53;;
3155;SDS011;1588;50.892;7.082;2023-03-01T13:27:10;14.43;;;6.50;;
3155;SDS011;1588;50.892;7.082;2023-03-01T13:32:27;12.07;;;5.83;;
3155;SDS011;1588;50.892;7.082;2023-03-01T13:37:34;13.83;;;5.90;;
3155;SDS011;1588;50.892;7.082;2023-03-01T13:42:42;8.77;;;5.00;;
3155;SDS011;1588;50.892;7.082;2023-03-01T13:47:49;11.53;;;5.87;;
3155;SDS011;1588;50.892;7.082;2023-03-01T13:52:56;17.40;;;7.70;;
3155;SDS011;1588;50.892;7.082;2023-03-01T13:58:02;10.37;;;6.20;;
3155;SDS011;1588;50.892;7.082;2023-03-01T14:03:16;14.30;;;6.53;;
3155;SDS011;1588;50.892;7.082;2023-03-01T14:08:21;11.47;;;6.60;;
3155;SDS011;1588;50.892;7.082;2023-03-01T14:13:28;16.20;;;6.90;;
3155;SDS011;1588;50.892;7.082;2023-03-01T14:18:45;9.83;;;6.20;;
3155;SDS011;1588;50.892;7.082;2023-03-01T14:23:53;14.63;;;7.23;;
3155;SDS011;1588;50.892;7.082;2023-03-01T14:28:55;12.13;;;6.80;;
3155;SDS011;1588;50.892;7.082;2023-03-01T14:34:05;15.73;;;5.77;;
3155;SDS011;1588;50.892;7.082;2023-03-01T14:39:23;11.03;;;5.50;;
3155;SDS011;1588;50.892;7.082;2023-03-01T14:44:27;15.33;;;5.77;;
3155;SDS011;1588;50.892;7.082;2023-03-01T14:49:34;10.23;;;5.30;;
3155;SDS011;1588;50.892;7.082;2023-03-01T14:54:39;11.10;;;6.00;;
3155;SDS011;1588;50.892;7.082;2023-03-01T14:59:47;14.57;;;6.10;;
3155;SDS011;1588;50.892;7.082;2023-03-01T15:04:54;14.20;;;6.40;;
3155;SDS011;1588;50.892;7.082;2023-03-01T15:09:58;15.20;;;7.03;;
3155;SDS011;1588;50.892;7.082;2023-03-01T15:15:01;15.43;;;6.70;;
3155;SDS011;1588;50.892;7.082;2023-03-01T15:20:22;13.60;;;6.77;;
3155;SDS011;1588;50.892;7.082;2023-03-01T15:25:28;13.03;;;6.40;;
3155;SDS011;1588;50.892;7.082;2023-03-01T15:30:35;13.57;;;6.53;;
3155;SDS011;1588;50.892;7.082;2023-03-01T15:35:42;13.90;;;6.70;;
3155;SDS011;1588;50.892;7.082;2023-03-01T15:40:49;14.57;;;6.77;;
3155;SDS011;1588;50.892;7.082;2023-03-01T15:45:55;10.77;;;5.93;;
3155;SDS011;1588;50.892;7.082;2023-03-01T15:51:00;16.20;;;6.97;;
3155;SDS011;1588;50.892;7.082;2023-03-01T15:56:04;13.50;;;5.20;;
3155;SDS011;1588;50.892;7.082;2023-03-01T16:01:08;13.97;;;5.90;;
3155;SDS011;1588;50.892;7.082;2023-03-01T16:06:15;15.00;;;5.90;;
3155;SDS011;1588;50.892;7.082;2023-03-01T16:11:18;11.57;;;5.87;;
3155;SDS011;1588;50.892;7.082;2023-03-01T16:16:22;10.67;;;5.70;;
3155;SDS011;1588;50.892;7.082;2023-03-01T16:21:26;10.90;;;4.90;;
3155;SDS011;1588;50.892;7.082;2023-03-01T16:26:30;8.83;;;5.10;;
3155;SDS011;1588;50.892;7.082;2023-03-01T16:31:32;34.33;;;12.73;;
3155;SDS011;1588;50.892;7.082;2023-03-01T16:36:36;15.37;;;7.03;;
3155;SDS011;1588;50.892;7.082;2023-03-01T16:41:39;14.40;;;6.00;;
3155;SDS011;1588;50.892;7.082;2023-03-01T16:46:41;16.00;;;6.10;;
3155;SDS011;1588;50.892;7.082;2023-03-01T16:51:50;9.47;;;5.30;;
3155;SDS011;1588;50.892;7.082;2023-03-01T16:57:05;16.87;;;5.80;;
3155;SDS011;1588;50.892;7.082;2023-03-01T17:02:08;10.53;;;5.07;;
3155;SDS011;1588;50.892;7.082;2023-03-01T17:07:14;12.40;;;4.50;;
3155;SDS011;1588;50.892;7.082;2023-03-01T17:12:26;11.17;;;5.20;;
3155;SDS011;1588;50.892;7.082;2023-03-01T17:17:29;18.87;;;7.23;;
3155;SDS011;1588;50.892;7.082;2023-03-01T17:22:33;16.73;;;6.30;;
3155;SDS011;1588;50.892;7.082;2023-03-01T17:27:36;17.50;;;6.47;;
3155;SDS011;1588;50.892;7.082;2023-03-01T17:32:39;10.20;;;5.27;;
3155;SDS011;1588;50.892;7.082;2023-03-01T17:37:43;11.80;;;5.63;;
3155;SDS011;1588;50.892;7.082;2023-03-01T17:42:47;19.33;;;6.30;;
3155;SDS011;1588;50.892;7.082;2023-03-01T17:47:49;15.97;;;6.17;;
3155;SDS011;1588;50.892;7.082;2023-03-01T17:52:53;16.70;;;6.60;;
3155;SDS011;1588;50.892;7.082;2023-03-01T17:57:56;11.13;;;5.70;;
3155;SDS011;1588;50.892;7.082;2023-03-01T18:02:58;19.13;;;6.50;;
3155;SDS011;1588;50.892;7.082;2023-03-01T18:08:02;12.40;;;5.67;;
3155;SDS011;1588;50.892;7.082;2023-03-01T18:13:04;26.93;;;8.57;;
3155;SDS011;1588;50.892;7.082;2023-03-01T18:18:11;15.10;;;6.50;;
3155;SDS011;1588;50.892;7.082;2023-03-01T18:23:15;13.43;;;6.23;;
3155;SDS011;1588;50.892;7.082;2023-03-01T18:28:17;14.83;;;7.93;;
3155;SDS011;1588;50.892;7.082;2023-03-01T18:33:19;9.47;;;5.07;;
3155;SDS011;1588;50.892;7.082;2023-03-01T18:38:23;13.13;;;5.27;;
3155;SDS011;1588;50.892;7.082;2023-03-01T18:43:25;13.33;;;5.83;;
3155;SDS011;1588;50.892;7.082;2023-03-01T18:48:28;9.13;;;4.73;;
3155;SDS011;1588;50.892;7.082;2023-03-01T18:53:32;12.10;;;4.43;;
3155;SDS011;1588;50.892;7.082;2023-03-01T18:58:34;13.13;;;5.33;;
3155;SDS011;1588;50.892;7.082;2023-03-01T19:03:38;12.73;;;5.50;;
3155;SDS011;1588;50.892;7.082;2023-03-01T19:08:42;15.00;;;5.00;;
3155;SDS011;1588;50.892;7.082;2023-03-01T19:13:45;8.70;;;3.90;;
3155;SDS011;1588;50.892;7.082;2023-03-01T19:18:51;9.00;;;4.53;;
3155;SDS011;1588;50.892;7.082;2023-03-01T19:23:58;9.07;;;4.67;;
3155;SDS011;1588;50.892;7.082;2023-03-01T19:29:02;11.20;;;4.90;;
3155;SDS011;1588;50.892;7.082;2023-03-01T19:34:05;9.60;;;4.40;;
3155;SDS011;1588;50.892;7.082;2023-03-01T19:39:09;14.30;;;5.07;;
3155;SDS011;1588;50.892;7.082;2023-03-01T19:44:13;10.10;;;4.27;;
3155;SDS011;1588;50.892;7.082;2023-03-01T19:49:15;11.33;;;4.60;;
3155;SDS011;1588;50.892;7.082;2023-03-01T19:54:18;10.70;;;5.30;;
3155;SDS011;1588;50.892;7.082;2023-03-01T19:59:22;14.57;;;5.90;;
3155;SDS011;1588;50.892;7.082;2023-03-01T20:04:25;16.57;;;7.83;;
3155;SDS011;1588;50.892;7.082;2023-03-01T20:09:28;14.90;;;6.00;;
3155;SDS011;1588;50.892;7.082;2023-03-01T20:14:30;18.13;;;8.10;;
3155;SDS011;1588;50.892;7.082;2023-03-01T20:19:43;23.33;;;8.30;;
3155;SDS011;1588;50.892;7.082;2023-03-01T20:24:46;21.83;;;7.23;;
3155;SDS011;1588;50.892;7.082;2023-03-01T20:29:48;17.93;;;7.93;;
3155;SDS011;1588;50.892;7.082;2023-03-01T20:34:51;21.43;;;9.20;;
3155;SDS011;1588;50.892;7.082;2023-03-01T20:39:56;15.00;;;7.37;;
3155;SDS011;1588;50.892;7.082;2023-03-01T20:44:59;45.30;;;8.97;;
3155;SDS011;1588;50.892;7.082;2023-03-01T20:50:11;21.20;;;8.07;;
3155;SDS011;1588;50.892;7.082;2023-03-01T20:55:19;22.50;;;8.20;;
3155;SDS011;1588;50.892;7.082;2023-03-01T21:00:21;19.77;;;7.80;;
3155;SDS011;1588;50.892;7.082;2023-03-01T21:05:24;17.27;;;7.50;;
3155;SDS011;1588;50.892;7.082;2023-03-01T21:10:31;12.77;;;6.80;;
3155;SDS011;1588;50.892;7.082;2023-03-01T21:15:42;21.00;;;7.70;;
3155;SDS011;1588;50.892;7.082;2023-03-01T21:21:03;19.33;;;8.33;;
3155;SDS011;1588;50.892;7.082;2023-03-01T21:26:09;27.53;;;10.73;;
3155;SDS011;1588;50.892;7.082;2023-03-01T21:31:13;17.93;;;8.23;;
3155;SDS011;1588;50.892;7.082;2023-03-01T21:36:18;27.80;;;8.20;;
3155;SDS011;1588;50.892;7.082;2023-03-01T21:41:23;18.50;;;8.20;;
3155;SDS011;1588;50.892;7.082;2023-03-01T21:46:29;27.47;;;11.50;;
3155;SDS011;1588;50.892;7.082;2023-03-01T21:51:40;23.67;;;8.33;;
3155;SDS011;1588;50.892;7.082;2023-03-01T21:57:03;19.33;;;8.97;;
3155;SDS011;1588;50.892;7.082;2023-03-01T22:02:14;15.87;;;7.57;;
3155;SDS011;1588;50.892;7.082;2023-03-01T22:07:16;16.70;;;7.30;;
3155;SDS011;1588;50.892;7.082;2023-03-01T22:12:20;15.37;;;5.60;;
3155;SDS011;1588;50.892;7.082;2023-03-01T22:17:22;12.23;;;5.27;;
3155;SDS011;1588;50.892;7.082;2023-03-01T22:22:25;11.33;;;5.10;;
3155;SDS011;1588;50.892;7.082;2023-03-01T22:27:28;13.07;;;6.03;;
3155;SDS011;1588;50.892;7.082;2023-03-01T22:32:31;12.60;;;5.40;;
3155;SDS011;1588;50.892;7.082;2023-03-01T22:37:33;22.50;;;5.63;;
3155;SDS011;1588;50.892;7.082;2023-03-01T22:42:37;12.50;;;4.60;;
3155;SDS011;1588;50.892;7.082;2023-03-01T22:47:39;10.20;;;4.83;;
3155;SDS011;1588;50.892;7.082;2023-03-01T22:52:41;11.73;;;5.63;;
3155;SDS011;1588;50.892;7.082;2023-03-01T22:57:48;16.10;;;6.00;;
3155;SDS011;1588;50.892;7.082;2023-03-01T23:02:50;17.07;;;5.77;;
3155;SDS011;1588;50.892;7.082;2023-03-01T23:07:53;14.03;;;4.33;;
3155;SDS011;1588;50.892;7.082;2023-03-01T23:12:56;12.67;;;4.67;;
3155;SDS011;1588;50.892;7.082;2023-03-01T23:18:01;11.50;;;5.43;;
3155;SDS011;1588;50.892;7.082;2023-03-01T23:23:04;18.50;;;6.47;;
3155;SDS011;1588;50.892;7.082;2023-03-01T23:28:10;14.67;;;6.60;;
3155;SDS011;1588;50.892;7.082;2023-03-01T23:33:14;13.10;;;5.80;;
3155;SDS011;1588;50.892;7.082;2023-03-01T23:38:17;13.07;;;6.30;;
3155;SDS011;1588;50.892;7.082;2023-03-01T23:43:21;15.93;;;6.23;;
3155;SDS011;1588;50.892;7.082;2023-03-01T23:48:28;16.77;;;7.80;;
3155;SDS011;1588;50.892;7.082;2023-03-01T23:53:30;15.97;;;6.90;;
3155;SDS011;1588;50.892;7.082;2023-03-01T23:58:40;20.70;;;7.13;;
